createdAt,value
2024-05-09T00:00:39.386Z,98167.03
2024-05-09T00:03:08.248Z,98157.50
2024-05-09T00:05:36.270Z,98162.03
2024-05-09T00:08:03.801Z,98155.41
2024-05-09T00:10:36.309Z,98163.91
2024-05-09T00:13:05.715Z,98159.75
2024-05-09T00:15:33.472Z,98161.66
2024-05-09T00:18:00.592Z,98157.28
2024-05-09T00:20:35.314Z,98157.50
2024-05-09T00:23:06.805Z,98153.34
2024-05-09T00:25:33.652Z,98148.19
2024-05-09T00:28:00.229Z,98152.13
2024-05-09T00:30:33.586Z,98156.69
2024-05-09T00:33:03.858Z,98140.94
2024-05-09T00:35:31.118Z,98143.03
2024-05-09T00:37:57.893Z,98148.63
2024-05-09T00:40:35.122Z,98150.88
2024-05-09T00:43:06.383Z,98148.19
2024-05-09T00:45:34.608Z,98144.69
2024-05-09T00:48:04.874Z,98141.56
2024-05-09T00:50:36.601Z,98134.94
2024-05-09T00:53:06.744Z,98141.56
2024-05-09T00:55:35.788Z,98145.50
2024-05-09T00:58:03.680Z,98136.19
2024-05-09T01:00:35.917Z,98145.69
2024-05-09T01:03:06.710Z,98144.47
2024-05-09T01:05:34.653Z,98147.13
2024-05-09T01:08:02.114Z,98144.03
2024-05-09T01:10:34.300Z,98143.00
2024-05-09T01:13:04.033Z,98133.50
2024-05-09T01:15:30.865Z,98146.34
2024-05-09T01:17:58.789Z,98145.91
2024-05-09T01:20:36.755Z,98139.72
2024-05-09T01:23:09.746Z,98137.63
2024-05-09T01:25:36.881Z,98139.91
2024-05-09T01:28:03.890Z,98142.97
2024-05-09T01:30:34.999Z,98144.63
2024-05-09T01:33:05.405Z,98141.72
2024-05-09T01:35:33.284Z,98144.97
2024-05-09T01:37:59.988Z,98144.56
2024-05-09T01:40:36.243Z,98148.00
2024-05-09T01:43:06.138Z,98144.91
2024-05-09T01:45:32.866Z,98140.97
2024-05-09T01:47:59.972Z,98144.47
2024-05-09T01:50:37.388Z,98137.00
2024-05-09T01:53:11.706Z,98139.72
2024-05-09T01:55:38.679Z,98139.88
2024-05-09T01:58:05.687Z,98145.44
2024-05-09T02:00:39.121Z,98146.66
2024-05-09T02:03:10.715Z,98146.84
2024-05-09T02:05:39.300Z,98152.22
2024-05-09T02:08:06.856Z,98148.50
2024-05-09T02:10:33.790Z,98153.66
2024-05-09T02:13:00.839Z,98148.94
2024-05-09T02:15:27.668Z,98137.56
2024-05-09T02:17:54.488Z,98146.06
2024-05-09T02:20:29.810Z,98143.81
2024-05-09T02:23:03.546Z,98143.63
2024-05-09T02:25:30.518Z,98146.97
2024-05-09T02:27:57.202Z,98150.84
2024-05-09T02:30:31.052Z,98141.41
2024-05-09T02:33:05.824Z,98137.31
2024-05-09T02:35:32.724Z,98143.41
2024-05-09T02:37:59.551Z,98145.97
2024-05-09T02:40:35.440Z,98143.41
2024-05-09T02:43:05.608Z,98143.81
2024-05-09T02:45:32.550Z,98144.41
2024-05-09T02:47:59.453Z,98150.94
2024-05-09T02:50:34.141Z,98148.03
2024-05-09T02:53:05.599Z,98156.38
2024-05-09T02:55:32.550Z,98159.53
2024-05-09T02:57:59.286Z,98154.63
2024-05-09T03:00:34.676Z,98156.22
2024-05-09T03:03:08.065Z,98153.72
2024-05-09T03:05:35.723Z,98150.25
2024-05-09T03:08:02.730Z,98154.06
2024-05-09T03:10:35.333Z,98149.09
2024-05-09T03:13:08.153Z,98151.19
2024-05-09T03:15:34.956Z,98155.69
2024-05-09T03:18:01.973Z,98157.78
2024-05-09T03:20:34.037Z,98148.63
2024-05-09T03:23:02.674Z,98142.00
2024-05-09T03:25:29.525Z,98149.94
2024-05-09T03:27:56.513Z,98150.13
2024-05-09T03:30:35.826Z,98136.25
2024-05-09T03:33:12.922Z,98141.72
2024-05-09T03:35:40.651Z,98145.28
2024-05-09T03:38:07.313Z,98142.38
2024-05-09T03:40:33.989Z,98146.56
2024-05-09T03:43:00.655Z,98141.53
2024-05-09T03:45:27.237Z,98140.69
2024-05-09T03:47:53.995Z,98144.66
2024-05-09T03:50:29.854Z,98137.81
2024-05-09T03:53:01.735Z,98136.16
2024-05-09T03:55:28.518Z,98136.59
2024-05-09T03:57:55.189Z,98141.59
2024-05-09T04:00:31.035Z,98134.34
2024-05-09T04:03:05.100Z,98141.63
2024-05-09T04:05:32.951Z,98140.75
2024-05-09T04:07:59.703Z,98139.81
2024-05-09T04:10:33.474Z,98150.09
2024-05-09T04:13:01.962Z,98145.06
2024-05-09T04:15:28.805Z,98141.44
2024-05-09T04:17:55.816Z,98143.81
2024-05-09T04:20:33.114Z,98144.59
2024-05-09T04:23:11.641Z,98141.53
2024-05-09T04:25:40.742Z,98150.84
2024-05-09T04:28:07.329Z,98146.50
2024-05-09T04:30:38.609Z,98148.75
2024-05-09T04:33:10.103Z,98153.34
2024-05-09T04:35:39.053Z,98161.44
2024-05-09T04:38:06.160Z,98166.19
2024-05-09T04:40:35.998Z,98157.53
2024-05-09T04:43:13.598Z,98158.16
2024-05-09T04:45:40.618Z,98161.88
2024-05-09T04:48:07.962Z,98162.50
2024-05-09T04:50:38.186Z,98161.88
2024-05-09T04:53:11.113Z,98162.59
2024-05-09T04:55:38.900Z,98162.69
2024-05-09T04:58:08.645Z,98168.69
2024-05-09T05:00:37.524Z,98156.97
2024-05-09T05:03:13.210Z,98166.75
2024-05-09T05:05:42.758Z,98169.47
2024-05-09T05:08:14.429Z,98174.88
2024-05-09T05:10:41.883Z,98179.28
2024-05-09T05:13:20.741Z,98178.69
2024-05-09T05:15:50.921Z,98176.69
2024-05-09T05:18:18.395Z,98169.28
2024-05-09T05:20:45.648Z,98174.25
2024-05-09T05:23:14.295Z,98171.16
2024-05-09T05:25:42.193Z,98168.69
2024-05-09T05:28:08.871Z,98172.41
2024-05-09T05:30:37.743Z,98169.72
2024-05-09T05:33:05.903Z,98173.66
2024-05-09T05:35:33.416Z,98183.56
2024-05-09T05:38:00.196Z,98170.91
2024-05-09T05:40:33.381Z,98186.63
2024-05-09T05:43:10.812Z,98177.03
2024-05-09T05:45:38.933Z,98184.19
2024-05-09T05:48:07.151Z,98179.56
2024-05-09T05:50:36.936Z,98184.09
2024-05-09T05:53:08.943Z,98190.44
2024-05-09T05:55:37.088Z,98183.06
2024-05-09T05:58:03.874Z,98189.44
2024-05-09T06:00:37.875Z,98183.00
2024-05-09T06:03:06.946Z,98188.88
2024-05-09T06:05:35.113Z,98183.50
2024-05-09T06:08:01.938Z,98186.22
2024-05-09T06:10:36.697Z,98180.03
2024-05-09T06:13:05.954Z,98184.22
2024-05-09T06:15:32.555Z,98183.25
2024-05-09T06:17:59.452Z,98184.75
2024-05-09T06:20:34.465Z,98184.34
2024-05-09T06:23:04.228Z,98185.31
2024-05-09T06:25:30.952Z,98185.25
2024-05-09T06:27:57.515Z,98188.56
2024-05-09T06:30:30.772Z,98182.22
2024-05-09T06:33:05.977Z,98188.38
2024-05-09T06:35:33.529Z,98192.84
2024-05-09T06:38:00.497Z,98192.53
2024-05-09T06:40:36.156Z,98188.00
2024-05-09T06:43:10.595Z,98192.66
2024-05-09T06:45:37.340Z,98195.25
2024-05-09T06:48:04.498Z,98191.50
2024-05-09T06:50:35.869Z,98197.63
2024-05-09T06:53:04.921Z,98186.69
2024-05-09T06:55:31.599Z,98193.06
2024-05-09T06:57:58.168Z,98192.25
2024-05-09T07:00:30.916Z,98180.69
2024-05-09T07:03:09.191Z,98184.06
2024-05-09T07:05:36.413Z,98184.66
2024-05-09T07:08:04.232Z,98177.69
2024-05-09T07:10:35.020Z,98183.09
2024-05-09T07:13:02.933Z,98183.22
2024-05-09T07:15:29.535Z,98191.31
2024-05-09T07:17:56.305Z,98185.28
2024-05-09T07:20:32.436Z,98188.69
2024-05-09T07:23:02.811Z,98189.03
2024-05-09T07:25:29.743Z,98188.09
2024-05-09T07:27:56.618Z,98181.03
2024-05-09T07:30:27.920Z,98183.38
2024-05-09T07:33:00.341Z,98180.00
2024-05-09T07:35:27.494Z,98184.81
2024-05-09T07:37:54.406Z,98185.72
2024-05-09T07:40:31.691Z,98180.63
2024-05-09T07:43:07.182Z,98179.81
2024-05-09T07:52:32.410Z,98185.84
2024-05-09T07:55:53.655Z,98185.53
2024-05-09T07:58:20.432Z,98182.88
2024-05-09T08:00:47.163Z,98177.69
2024-05-09T08:03:13.870Z,98176.13
2024-05-09T08:05:40.553Z,98176.44
2024-05-09T08:08:07.951Z,98174.06
2024-05-09T08:10:35.279Z,98173.06
2024-05-09T08:13:02.023Z,98172.41
2024-05-09T08:15:28.870Z,98169.25
2024-05-09T08:17:55.736Z,98159.25
2024-05-09T08:20:30.317Z,98164.44
2024-05-09T08:22:57.851Z,98157.44
2024-05-09T08:25:25.439Z,98159.00
2024-05-09T08:27:52.071Z,98155.63
2024-05-09T08:30:24.942Z,98153.06
2024-05-09T08:32:56.616Z,98155.06
2024-05-09T08:35:23.502Z,98157.88
2024-05-09T08:37:50.349Z,98155.22
2024-05-09T08:40:24.012Z,98156.94
2024-05-09T08:42:57.741Z,98158.19
2024-05-09T08:45:24.674Z,98155.81
2024-05-09T08:47:52.076Z,98159.09
2024-05-09T08:50:31.647Z,98164.91
2024-05-09T08:53:04.852Z,98164.59
2024-05-09T08:55:31.558Z,98165.06
2024-05-09T08:58:00.821Z,98170.31
2024-05-09T09:00:35.863Z,98165.38
2024-05-09T09:03:06.794Z,98159.63
2024-05-09T09:05:37.103Z,98157.78
2024-05-09T09:08:07.547Z,98146.91
2024-05-09T09:10:35.193Z,98155.16
2024-05-09T09:13:04.217Z,98154.69
2024-05-09T09:15:31.123Z,98155.66
2024-05-09T09:17:59.177Z,98153.53
2024-05-09T09:20:36.284Z,98151.34
2024-05-09T09:23:04.558Z,98152.09
2024-05-09T09:25:32.031Z,98159.81
2024-05-09T09:27:59.185Z,98162.09
2024-05-09T09:30:36.364Z,98153.44
2024-05-09T09:33:13.807Z,98159.72
2024-05-09T09:35:42.053Z,98150.72
2024-05-09T09:38:10.481Z,98146.97
2024-05-09T09:40:42.836Z,98150.25
2024-05-09T09:43:23.063Z,98146.75
2024-05-09T09:45:51.326Z,98150.00
2024-05-09T09:48:20.049Z,98151.38
2024-05-09T09:50:47.420Z,98150.03
2024-05-09T09:53:14.154Z,98141.09
2024-05-09T09:55:41.968Z,98148.69
2024-05-09T09:58:13.154Z,98143.28
2024-05-09T10:00:40.933Z,98141.16
2024-05-09T10:03:07.700Z,98138.97
2024-05-09T10:05:35.084Z,98144.44
2024-05-09T10:08:06.726Z,98136.84
2024-05-09T10:10:34.158Z,98146.25
2024-05-09T10:13:08.674Z,98139.94
2024-05-09T10:15:51.738Z,98137.84
2024-05-09T10:18:27.841Z,98133.22
2024-05-09T10:20:56.314Z,98122.84
2024-05-09T10:23:27.065Z,98135.13
2024-05-09T10:26:02.032Z,98130.50
2024-05-09T10:28:30.202Z,98126.66
2024-05-09T10:31:15.869Z,98134.59
2024-05-09T10:33:48.727Z,98130.44
2024-05-09T10:36:23.674Z,98117.91
2024-05-09T10:38:51.271Z,98128.47
2024-05-09T10:41:18.946Z,98128.53
2024-05-09T10:43:46.415Z,98125.00
2024-05-09T10:46:14.455Z,98123.72
2024-05-09T10:48:44.922Z,98121.88
2024-05-09T10:51:13.088Z,98114.50
2024-05-09T10:53:45.121Z,98123.03
2024-05-09T10:56:13.716Z,98121.16
2024-05-09T10:58:40.513Z,98108.34
2024-05-09T11:01:08.661Z,98114.75
2024-05-09T11:03:36.168Z,98116.03
2024-05-09T11:06:03.194Z,98114.03
2024-05-09T11:08:31.823Z,98106.19
2024-05-09T11:10:59.555Z,98106.44
2024-05-09T11:13:31.376Z,98103.56
2024-05-09T11:15:59.216Z,98101.38
2024-05-09T11:18:29.776Z,98102.59
2024-05-09T11:20:59.043Z,98100.03
2024-05-09T11:23:27.962Z,98098.88
2024-05-09T11:25:57.024Z,98099.44
2024-05-09T11:28:24.226Z,98097.00
2024-05-09T11:30:51.596Z,98101.38
2024-05-09T11:33:19.350Z,98087.06
2024-05-09T11:35:47.391Z,98095.09
2024-05-09T11:38:14.110Z,98090.31
2024-05-09T11:40:41.662Z,98087.75
2024-05-09T11:43:08.690Z,98081.72
2024-05-09T11:45:35.333Z,98083.06
2024-05-09T11:48:03.266Z,98078.84
2024-05-09T11:50:34.935Z,98077.56
2024-05-09T11:53:02.800Z,98078.09
2024-05-09T11:55:29.565Z,98077.09
2024-05-09T11:57:57.286Z,98079.78
2024-05-09T12:00:33.641Z,98073.03
2024-05-09T12:03:04.941Z,98073.69
2024-05-09T12:05:32.416Z,98063.38
2024-05-09T12:07:59.463Z,98052.19
2024-05-09T12:10:32.438Z,98053.69
2024-05-09T12:13:02.009Z,98053.75
2024-05-09T12:15:28.972Z,98057.16
2024-05-09T12:17:58.351Z,98051.06
2024-05-09T12:20:35.158Z,98050.06
2024-05-09T12:23:05.039Z,98043.13
2024-05-09T12:25:31.641Z,98042.13
2024-05-09T12:27:58.416Z,98047.28
2024-05-09T12:30:33.310Z,98046.47
2024-05-09T12:33:04.986Z,98038.63
2024-05-09T12:35:31.928Z,98049.59
2024-05-09T12:37:58.569Z,98040.66
2024-05-09T12:40:34.295Z,98041.91
2024-05-09T12:43:04.849Z,98043.56
2024-05-09T12:45:31.966Z,98037.25
2024-05-09T12:47:59.354Z,98035.22
2024-05-09T12:50:32.277Z,98031.03
2024-05-09T12:53:01.229Z,98029.72
2024-05-09T12:55:29.752Z,98020.94
2024-05-09T12:57:58.902Z,98020.25
2024-05-09T13:00:31.673Z,98019.09
2024-05-09T13:03:01.234Z,98023.38
2024-05-09T13:05:28.687Z,98032.78
2024-05-09T13:07:56.578Z,98022.16
2024-05-09T13:10:30.703Z,98023.22
2024-05-09T13:13:00.111Z,98029.00
2024-05-09T13:15:27.217Z,98019.72
2024-05-09T13:17:55.794Z,98017.34
2024-05-09T13:20:31.652Z,98013.94
2024-05-09T13:23:05.651Z,98023.34
2024-05-09T13:25:34.837Z,98022.34
2024-05-09T13:28:02.171Z,98008.81
2024-05-09T13:30:37.723Z,98013.41
2024-05-09T13:33:08.159Z,98015.72
2024-05-09T13:35:35.822Z,98008.25
2024-05-09T13:38:03.129Z,98009.06
2024-05-09T13:40:34.237Z,98004.38
2024-05-09T13:43:04.030Z,98002.06
2024-05-09T13:45:31.051Z,98001.31
2024-05-09T13:47:58.114Z,97999.06
2024-05-09T13:50:33.179Z,97989.97
2024-05-09T13:53:02.772Z,97988.75
2024-05-09T13:55:29.346Z,97989.34
2024-05-09T13:57:56.302Z,97987.19
2024-05-09T14:00:37.378Z,97972.63
2024-05-09T14:03:09.884Z,97980.38
2024-05-09T14:05:36.965Z,97979.69
2024-05-09T14:08:03.998Z,97971.63
2024-05-09T14:10:31.849Z,97970.84
2024-05-09T14:12:59.803Z,97962.00
2024-05-09T14:15:26.542Z,97952.19
2024-05-09T14:17:53.705Z,97948.25
2024-05-09T14:20:30.009Z,97958.38
2024-05-09T14:22:59.442Z,97947.50
2024-05-09T14:25:30.409Z,97949.53
2024-05-09T14:27:59.948Z,97956.94
2024-05-09T14:30:34.740Z,97947.03
2024-05-09T14:33:05.264Z,97944.47
2024-05-09T14:35:32.547Z,97942.13
2024-05-09T14:37:59.303Z,97938.16
2024-05-09T14:40:36.584Z,97940.63
2024-05-09T14:43:08.347Z,97936.59
2024-05-09T14:45:35.285Z,97936.94
2024-05-09T14:48:03.337Z,97932.66
2024-05-09T14:50:36.078Z,97934.56
2024-05-09T14:53:06.928Z,97926.53
2024-05-09T14:55:37.261Z,97917.16
2024-05-09T14:58:08.425Z,97921.81
2024-05-09T15:00:41.256Z,97920.72
2024-05-09T15:03:11.120Z,97908.47
2024-05-09T15:05:38.012Z,97909.06
2024-05-09T15:08:08.462Z,97909.59
2024-05-09T15:10:36.771Z,97900.94
2024-05-09T15:13:05.115Z,97912.97
2024-05-09T15:15:32.096Z,97908.06
2024-05-09T15:17:59.642Z,97913.94
2024-05-09T15:20:33.475Z,97908.44
2024-05-09T15:23:03.069Z,97909.16
2024-05-09T15:25:29.977Z,97905.66
2024-05-09T15:27:57.046Z,97901.03
2024-05-09T15:30:30.924Z,97894.91
2024-05-09T15:33:00.703Z,97890.16
2024-05-09T15:35:27.707Z,97894.16
2024-05-09T15:37:54.444Z,97884.72
2024-05-09T15:40:30.707Z,97893.00
2024-05-09T15:43:05.211Z,97890.75
2024-05-09T15:45:32.230Z,97884.72
2024-05-09T15:47:59.608Z,97892.94
2024-05-09T15:50:36.110Z,97878.44
2024-05-09T15:53:07.187Z,97875.19
2024-05-09T15:55:34.913Z,97881.50
2024-05-09T15:58:02.554Z,97884.75
2024-05-09T16:00:37.456Z,97879.19
2024-05-09T16:03:12.216Z,97884.00
2024-05-09T16:05:40.675Z,97886.59
2024-05-09T16:08:07.972Z,97883.81
2024-05-09T16:10:35.410Z,97881.59
2024-05-09T16:13:03.431Z,97880.13
2024-05-09T16:15:30.868Z,97864.28
2024-05-09T16:17:57.800Z,97864.72
2024-05-09T16:22:54.434Z,97867.28
2024-05-09T16:25:21.178Z,97863.19
2024-05-09T16:27:47.914Z,97861.69
2024-05-09T16:30:24.045Z,97856.59
2024-05-09T16:32:55.875Z,97855.25
2024-05-09T16:35:22.754Z,97862.72
2024-05-09T16:37:49.554Z,97858.63
2024-05-09T16:40:25.254Z,97850.69
2024-05-09T16:43:03.744Z,97844.34
2024-05-09T16:45:30.631Z,97846.72
2024-05-09T16:47:57.637Z,97837.28
2024-05-09T16:50:29.464Z,97843.38
2024-05-09T16:52:59.605Z,97844.72
2024-05-09T16:55:26.325Z,97839.41
2024-05-09T16:57:53.207Z,97837.72
2024-05-09T17:00:30.926Z,97841.91
2024-05-09T17:03:06.196Z,97845.06
2024-05-09T17:05:33.593Z,97844.31
2024-05-09T17:08:01.155Z,97840.81
2024-05-09T17:10:32.828Z,97845.94
2024-05-09T17:13:06.677Z,97847.19
2024-05-09T17:15:34.956Z,97842.56
2024-05-09T17:18:02.378Z,97836.81
2024-05-09T17:20:33.745Z,97844.41
2024-05-09T17:23:04.323Z,97839.94
2024-05-09T17:25:31.275Z,97837.66
2024-05-09T17:28:05.237Z,97833.88
2024-05-09T17:30:36.411Z,97840.22
2024-05-09T17:33:06.228Z,97839.19
2024-05-09T17:35:33.036Z,97839.81
2024-05-09T17:38:01.396Z,97847.59
2024-05-09T17:40:33.478Z,97842.47
2024-05-09T17:43:03.919Z,97836.97
2024-05-09T17:45:31.319Z,97849.94
2024-05-09T17:47:58.478Z,97837.94
2024-05-09T17:50:31.500Z,97837.69
2024-05-09T17:53:02.393Z,97835.28
2024-05-09T17:55:29.248Z,97838.53
2024-05-09T17:57:56.066Z,97841.66
2024-05-09T18:00:33.131Z,97839.28
2024-05-09T18:03:05.642Z,97843.97
2024-05-09T18:05:32.623Z,97835.78
2024-05-09T18:07:59.463Z,97846.75
2024-05-09T18:10:33.146Z,97846.53
2024-05-09T18:13:05.216Z,97847.13
2024-05-09T18:15:32.096Z,97846.34
2024-05-09T18:17:59.441Z,97842.56
2024-05-09T18:20:32.996Z,97841.25
2024-05-09T18:23:07.797Z,97844.84
2024-05-09T18:25:34.489Z,97850.59
2024-05-09T18:28:04.825Z,97844.13
2024-05-09T18:30:35.073Z,97840.59
2024-05-09T18:33:05.423Z,97845.81
2024-05-09T18:35:33.321Z,97848.81
2024-05-09T18:38:00.254Z,97843.91
2024-05-09T18:40:33.441Z,97845.50
2024-05-09T18:43:03.736Z,97841.66
2024-05-09T18:45:30.626Z,97848.84
2024-05-09T18:47:57.814Z,97849.09
2024-05-09T18:50:33.731Z,97852.22
2024-05-09T18:53:06.287Z,97857.00
2024-05-09T18:55:33.098Z,97849.47
2024-05-09T18:57:59.890Z,97855.81
2024-05-09T19:00:33.965Z,97868.09
2024-05-09T19:03:05.614Z,97860.91
2024-05-09T19:05:34.266Z,97864.25
2024-05-09T19:08:01.660Z,97860.44
2024-05-09T19:10:33.899Z,97861.38
2024-05-09T19:13:04.371Z,97867.06
2024-05-09T19:15:33.788Z,97865.97
2024-05-09T19:18:00.679Z,97866.81
2024-05-09T19:20:33.178Z,97863.06
2024-05-09T19:23:01.411Z,97872.41
2024-05-09T19:25:27.998Z,97879.06
2024-05-09T19:27:54.688Z,97888.34
2024-05-09T19:30:29.906Z,97881.03
2024-05-09T19:33:05.019Z,97874.47
2024-05-09T19:35:32.281Z,97873.94
2024-05-09T19:37:59.152Z,97875.00
2024-05-09T19:40:31.288Z,97882.25
2024-05-09T19:43:00.486Z,97875.28
2024-05-09T19:45:27.167Z,97880.44
2024-05-09T19:47:53.960Z,97869.00
2024-05-09T19:50:27.060Z,97874.31
2024-05-09T19:53:02.940Z,97881.88
2024-05-09T19:55:29.624Z,97877.97
2024-05-09T19:57:56.277Z,97875.44
2024-05-09T20:00:29.447Z,97883.44
2024-05-09T20:03:02.231Z,97880.47
2024-05-09T20:05:31.076Z,97884.34
2024-05-09T20:07:58.190Z,97874.78
2024-05-09T20:10:31.082Z,97879.78
2024-05-09T20:12:59.637Z,97882.50
2024-05-09T20:15:26.442Z,97892.13
2024-05-09T20:17:53.497Z,97884.38
2024-05-09T20:20:28.454Z,97885.84
2024-05-09T20:23:03.026Z,97885.72
2024-05-09T20:25:29.773Z,97886.78
2024-05-09T20:27:56.441Z,97892.56
2024-05-09T20:30:30.520Z,97890.06
2024-05-09T20:32:59.977Z,97887.72
2024-05-09T20:35:26.888Z,97887.16
2024-05-09T20:37:53.741Z,97886.91
2024-05-09T20:40:28.370Z,97883.94
2024-05-09T20:42:59.197Z,97890.06
2024-05-09T20:45:25.963Z,97884.41
2024-05-09T20:47:53.067Z,97884.19
2024-05-09T20:50:28.419Z,97887.94
2024-05-09T20:53:03.023Z,97886.69
2024-05-09T20:55:29.927Z,97891.28
2024-05-09T20:57:56.966Z,97889.28
2024-05-09T21:00:30.342Z,97888.09
2024-05-09T21:03:06.324Z,97890.91
2024-05-09T21:05:33.982Z,97881.97
2024-05-09T21:08:00.875Z,97882.66
2024-05-09T21:10:32.079Z,97881.50
2024-05-09T21:13:00.207Z,97883.03
2024-05-09T21:15:26.808Z,97880.34
2024-05-09T21:17:53.467Z,97882.72
2024-05-09T21:20:24.406Z,97883.19
2024-05-09T21:22:57.621Z,97880.84
2024-05-09T21:25:24.356Z,97863.47
2024-05-09T21:27:51.105Z,97865.47
2024-05-09T21:30:26.803Z,97871.31
2024-05-09T21:32:59.641Z,97876.38
2024-05-09T21:35:26.331Z,97879.25
2024-05-09T21:37:52.895Z,97867.59
2024-05-09T21:40:27.249Z,97871.13
2024-05-09T21:43:01.100Z,97871.81
2024-05-09T21:45:27.868Z,97874.84
2024-05-09T21:47:54.795Z,97872.94
2024-05-09T21:50:28.082Z,97872.06
2024-05-09T21:52:59.246Z,97878.31
2024-05-09T21:55:25.906Z,97871.38
2024-05-09T21:57:52.558Z,97873.00
2024-05-09T22:00:28.789Z,97870.44
2024-05-09T22:03:02.177Z,97869.56
2024-05-09T22:05:29.137Z,97863.75
2024-05-09T22:07:56.455Z,97862.19
2024-05-09T22:10:27.152Z,97864.22
2024-05-09T22:13:00.152Z,97851.88
2024-05-09T22:15:27.036Z,97848.50
2024-05-09T22:17:53.900Z,97857.25
2024-05-09T22:20:28.791Z,97851.34
2024-05-09T22:23:02.570Z,97859.00
2024-05-09T22:25:30.925Z,97858.38
2024-05-09T22:27:58.416Z,97854.72
2024-05-09T22:30:33.825Z,97858.69
2024-05-09T22:33:05.172Z,97856.75
2024-05-09T22:35:32.093Z,97855.06
2024-05-09T22:37:58.869Z,97860.09
2024-05-09T22:40:37.886Z,97859.81
2024-05-09T22:43:12.506Z,97860.56
2024-05-09T22:45:39.374Z,97870.97
2024-05-09T22:48:06.950Z,97865.41
2024-05-09T22:50:34.017Z,97863.09
2024-05-09T22:53:00.975Z,97866.84
2024-05-09T22:55:27.733Z,97861.81
2024-05-09T22:57:54.422Z,97866.09
2024-05-09T23:00:29.292Z,97863.06
2024-05-09T23:03:02.812Z,97867.25
2024-05-09T23:05:31.815Z,97866.44
2024-05-09T23:07:58.538Z,97856.72
2024-05-09T23:10:32.182Z,97858.34
2024-05-09T23:13:03.796Z,97855.38
2024-05-09T23:15:31.784Z,97854.38
2024-05-09T23:17:58.940Z,97858.88
2024-05-09T23:20:35.871Z,97857.63
2024-05-09T23:23:10.888Z,97857.22
2024-05-09T23:25:39.139Z,97855.72
2024-05-09T23:28:06.307Z,97848.50
2024-05-09T23:30:38.095Z,97849.63
2024-05-09T23:33:07.731Z,97855.91
2024-05-09T23:35:34.695Z,97852.97
2024-05-09T23:38:01.306Z,97853.97
2024-05-09T23:40:37.491Z,97848.72
2024-05-09T23:43:07.741Z,97858.28
2024-05-09T23:45:34.815Z,97851.41
2024-05-09T23:48:01.822Z,97856.81
2024-05-09T23:50:35.791Z,97851.59
2024-05-09T23:53:06.589Z,97848.28
2024-05-09T23:55:34.230Z,97848.72
2024-05-09T23:58:01.102Z,97846.22
